sensor_id;sensor_type;location;lat;lon;timestamp;pressure;altitude;pressure_sealevel;temperature;humidity
10518;BME280;5307;42.548;22.968;2024-02-23T00:01:49;93661.34;;;6.28;85.11
10518;BME280;5307;42.548;22.968;2024-02-23T00:04:15;93659.81;;;6.27;85.57
10518;BME280;5307;42.548;22.968;2024-02-23T00:06:44;93646.03;;;6.21;86.28
10518;BME280;5307;42.548;22.968;2024-02-23T00:09:15;93652.44;;;6.44;86.36
10518;BME280;5307;42.548;22.968;2024-02-23T00:11:46;93651.84;;;6.52;86.14
10518;BME280;5307;42.548;22.968;2024-02-23T00:14:15;93640.81;;;6.43;86.59
10518;BME280;5307;42.548;22.968;2024-02-23T00:16:43;93642.34;;;6.44;86.40
10518;BME280;5307;42.548;22.968;2024-02-23T00:19:13;93647.00;;;6.44;86.72
10518;BME280;5307;42.548;22.968;2024-02-23T00:21:40;93640.72;;;6.47;87.31
10518;BME280;5307;42.548;22.968;2024-02-23T00:24:07;93643.03;;;6.48;86.80
10518;BME280;5307;42.548;22.968;2024-02-23T00:26:36;93636.00;;;6.51;87.30
10518;BME280;5307;42.548;22.968;2024-02-23T00:29:03;93628.78;;;6.44;87.73
10518;BME280;5307;42.548;22.968;2024-02-23T00:31:29;93642.09;;;6.55;87.40
10518;BME280;5307;42.548;22.968;2024-02-23T00:33:56;93631.50;;;6.44;87.53
10518;BME280;5307;42.548;22.968;2024-02-23T00:36:23;93637.78;;;6.41;88.46
10518;BME280;5307;42.548;22.968;2024-02-23T00:38:51;93625.16;;;6.51;88.79
10518;BME280;5307;42.548;22.968;2024-02-23T00:41:18;93618.47;;;6.39;89.72
10518;BME280;5307;42.548;22.968;2024-02-23T00:43:47;93624.22;;;6.41;89.68
10518;BME280;5307;42.548;22.968;2024-02-23T00:46:14;93617.63;;;6.26;90.28
10518;BME280;5307;42.548;22.968;2024-02-23T00:48:40;93615.78;;;6.23;91.75
10518;BME280;5307;42.548;22.968;2024-02-23T00:51:07;93630.59;;;6.18;92.34
10518;BME280;5307;42.548;22.968;2024-02-23T00:53:34;93628.41;;;6.13;93.77
10518;BME280;5307;42.548;22.968;2024-02-23T00:56:01;93625.94;;;6.03;95.81
10518;BME280;5307;42.548;22.968;2024-02-23T00:58:29;93627.44;;;6.04;97.35
10518;BME280;5307;42.548;22.968;2024-02-23T01:00:57;93618.84;;;5.92;98.05
10518;BME280;5307;42.548;22.968;2024-02-23T01:03:24;93624.59;;;5.94;99.59
10518;BME280;5307;42.548;22.968;2024-02-23T01:05:51;93632.53;;;6.02;100.00
10518;BME280;5307;42.548;22.968;2024-02-23T01:08:17;93613.63;;;5.82;100.00
10518;BME280;5307;42.548;22.968;2024-02-23T01:10:44;93623.53;;;5.88;100.00
10518;BME280;5307;42.548;22.968;2024-02-23T01:13:12;93619.31;;;6.04;100.00
10518;BME280;5307;42.548;22.968;2024-02-23T01:15:40;93625.69;;;5.97;100.00
10518;BME280;5307;42.548;22.968;2024-02-23T01:18:08;93617.22;;;5.95;100.00
10518;BME280;5307;42.548;22.968;2024-02-23T01:20:35;93597.84;;;5.77;100.00
10518;BME280;5307;42.548;22.968;2024-02-23T01:23:03;93608.31;;;5.94;100.00
10518;BME280;5307;42.548;22.968;2024-02-23T01:25:30;93606.38;;;5.95;100.00
10518;BME280;5307;42.548;22.968;2024-02-23T01:27:57;93608.22;;;5.98;100.00
10518;BME280;5307;42.548;22.968;2024-02-23T01:30:24;93600.97;;;5.95;100.00
10518;BME280;5307;42.548;22.968;2024-02-23T01:32:51;93597.56;;;5.91;100.00
10518;BME280;5307;42.548;22.968;2024-02-23T01:35:19;93594.47;;;5.89;100.00
10518;BME280;5307;42.548;22.968;2024-02-23T01:37:49;93596.13;;;6.03;100.00
10518;BME280;5307;42.548;22.968;2024-02-23T01:40:15;93582.91;;;6.05;100.00
10518;BME280;5307;42.548;22.968;2024-02-23T01:42:49;93584.19;;;6.00;100.00
10518;BME280;5307;42.548;22.968;2024-02-23T01:45:16;93591.47;;;6.03;100.00
10518;BME280;5307;42.548;22.968;2024-02-23T01:47:42;93581.03;;;6.02;100.00
10518;BME280;5307;42.548;22.968;2024-02-23T01:50:09;93587.16;;;6.06;100.00
10518;BME280;5307;42.548;22.968;2024-02-23T01:52:39;93583.75;;;6.02;100.00
10518;BME280;5307;42.548;22.968;2024-02-23T01:55:07;93580.28;;;6.01;100.00
10518;BME280;5307;42.548;22.968;2024-02-23T01:57:33;93574.84;;;6.01;100.00
10518;BME280;5307;42.548;22.968;2024-02-23T02:00:01;93565.81;;;6.08;100.00
10518;BME280;5307;42.548;22.968;2024-02-23T02:02:30;93574.59;;;6.12;100.00
10518;BME280;5307;42.548;22.968;2024-02-23T02:04:57;93571.91;;;6.12;100.00
10518;BME280;5307;42.548;22.968;2024-02-23T02:07:23;93569.94;;;6.12;100.00
10518;BME280;5307;42.548;22.968;2024-02-23T02:09:52;93569.59;;;6.10;100.00
10518;BME280;5307;42.548;22.968;2024-02-23T02:12:26;93565.81;;;6.08;100.00
10518;BME280;5307;42.548;22.968;2024-02-23T02:14:53;93562.41;;;6.04;100.00
10518;BME280;5307;42.548;22.968;2024-02-23T02:17:21;93563.34;;;5.97;100.00
10518;BME280;5307;42.548;22.968;2024-02-23T02:19:48;93564.78;;;6.02;100.00
10518;BME280;5307;42.548;22.968;2024-02-23T02:22:15;93562.06;;;6.02;100.00
10518;BME280;5307;42.548;22.968;2024-02-23T02:24:41;93560.31;;;5.95;100.00
10518;BME280;5307;42.548;22.968;2024-02-23T02:27:10;93564.75;;;5.85;100.00
10518;BME280;5307;42.548;22.968;2024-02-23T02:29:37;93561.56;;;5.90;100.00
10518;BME280;5307;42.548;22.968;2024-02-23T02:32:04;93564.28;;;5.90;100.00
10518;BME280;5307;42.548;22.968;2024-02-23T02:34:31;93559.34;;;5.85;100.00
10518;BME280;5307;42.548;22.968;2024-02-23T02:36:58;93564.75;;;5.85;100.00
10518;BME280;5307;42.548;22.968;2024-02-23T02:39:25;93567.63;;;5.62;100.00
10518;BME280;5307;42.548;22.968;2024-02-23T02:41:52;93566.94;;;5.58;100.00
10518;BME280;5307;42.548;22.968;2024-02-23T02:44:20;93557.41;;;5.70;100.00
10518;BME280;5307;42.548;22.968;2024-02-23T02:46:46;93563.91;;;5.72;100.00
10518;BME280;5307;42.548;22.968;2024-02-23T02:49:13;93552.59;;;5.77;100.00
10518;BME280;5307;42.548;22.968;2024-02-23T02:51:40;93561.38;;;5.81;100.00
10518;BME280;5307;42.548;22.968;2024-02-23T02:54:07;93563.34;;;5.81;100.00
10518;BME280;5307;42.548;22.968;2024-02-23T02:56:33;93558.09;;;5.90;100.00
10518;BME280;5307;42.548;22.968;2024-02-23T02:59:00;93561.88;;;5.76;100.00
10518;BME280;5307;42.548;22.968;2024-02-23T03:01:28;93565.75;;;5.75;100.00
10518;BME280;5307;42.548;22.968;2024-02-23T03:03:55;93556.81;;;5.78;100.00
10518;BME280;5307;42.548;22.968;2024-02-23T03:06:22;93566.97;;;5.74;100.00
10518;BME280;5307;42.548;22.968;2024-02-23T03:08:48;93555.00;;;5.88;100.00
10518;BME280;5307;42.548;22.968;2024-02-23T03:11:15;93565.84;;;5.72;100.00
10518;BME280;5307;42.548;22.968;2024-02-23T03:13:42;93569.59;;;5.78;100.00
10518;BME280;5307;42.548;22.968;2024-02-23T03:16:14;93569.75;;;5.71;100.00
10518;BME280;5307;42.548;22.968;2024-02-23T03:18:43;93559.16;;;5.76;100.00
10518;BME280;5307;42.548;22.968;2024-02-23T03:21:09;93570.84;;;5.73;100.00
10518;BME280;5307;42.548;22.968;2024-02-23T03:23:36;93573.31;;;5.68;100.00
10518;BME280;5307;42.548;22.968;2024-02-23T03:26:03;93571.63;;;5.74;100.00
10518;BME280;5307;42.548;22.968;2024-02-23T03:28:30;93565.28;;;5.64;100.00
10518;BME280;5307;42.548;22.968;2024-02-23T03:30:57;93568.38;;;5.62;100.00
10518;BME280;5307;42.548;22.968;2024-02-23T03:33:24;93566.94;;;5.58;100.00
10518;BME280;5307;42.548;22.968;2024-02-23T03:35:52;93574.50;;;5.66;100.00
10518;BME280;5307;42.548;22.968;2024-02-23T03:38:19;93566.63;;;5.72;100.00
10518;BME280;5307;42.548;22.968;2024-02-23T03:40:46;93575.94;;;5.71;100.00
10518;BME280;5307;42.548;22.968;2024-02-23T03:43:12;93568.31;;;5.66;100.00
10518;BME280;5307;42.548;22.968;2024-02-23T03:45:39;93568.97;;;5.54;100.00
10518;BME280;5307;42.548;22.968;2024-02-23T03:48:06;93563.72;;;5.47;100.00
10518;BME280;5307;42.548;22.968;2024-02-23T03:50:33;93566.16;;;5.41;100.00
10518;BME280;5307;42.548;22.968;2024-02-23T03:53:05;93571.34;;;5.52;100.00
10518;BME280;5307;42.548;22.968;2024-02-23T03:55:32;93578.44;;;5.46;100.00
10518;BME280;5307;42.548;22.968;2024-02-23T03:57:59;93574.06;;;5.52;100.00
10518;BME280;5307;42.548;22.968;2024-02-23T04:00:26;93577.09;;;5.54;100.00
10518;BME280;5307;42.548;22.968;2024-02-23T04:02:52;93584.19;;;5.48;100.00
10518;BME280;5307;42.548;22.968;2024-02-23T04:05:19;93573.03;;;5.62;100.00
10518;BME280;5307;42.548;22.968;2024-02-23T04:07:46;93579.16;;;5.50;100.00
10518;BME280;5307;42.548;22.968;2024-02-23T04:10:14;93569.75;;;5.54;100.00
10518;BME280;5307;42.548;22.968;2024-02-23T04:12:42;93569.13;;;5.47;100.00
10518;BME280;5307;42.548;22.968;2024-02-23T04:15:09;93571.03;;;5.50;100.00
10518;BME280;5307;42.548;22.968;2024-02-23T04:17:36;93569.78;;;5.34;100.00
10518;BME280;5307;42.548;22.968;2024-02-23T04:20:06;93571.34;;;5.35;100.00
10518;BME280;5307;42.548;22.968;2024-02-23T04:22:33;93569.94;;;5.27;100.00
10518;BME280;5307;42.548;22.968;2024-02-23T04:25:00;93563.34;;;5.28;100.00
10518;BME280;5307;42.548;22.968;2024-02-23T04:27:28;93563.44;;;5.25;100.00
10518;BME280;5307;42.548;22.968;2024-02-23T04:29:54;93569.03;;;5.34;100.00
10518;BME280;5307;42.548;22.968;2024-02-23T04:32:21;93568.19;;;5.21;100.00
10518;BME280;5307;42.548;22.968;2024-02-23T04:34:49;93575.38;;;5.27;100.00
10518;BME280;5307;42.548;22.968;2024-02-23T04:37:15;93565.91;;;5.35;100.00
10518;BME280;5307;42.548;22.968;2024-02-23T04:39:43;93565.16;;;5.35;100.00
10518;BME280;5307;42.548;22.968;2024-02-23T04:42:10;93566.91;;;5.25;100.00
10518;BME280;5307;42.548;22.968;2024-02-23T04:44:40;93568.97;;;5.38;100.00
10518;BME280;5307;42.548;22.968;2024-02-23T04:47:07;93573.84;;;5.26;100.00
10518;BME280;5307;42.548;22.968;2024-02-23T04:49:34;93585.22;;;5.18;100.00
10518;BME280;5307;42.548;22.968;2024-02-23T04:52:01;93576.50;;;5.10;100.00
10518;BME280;5307;42.548;22.968;2024-02-23T04:54:27;93576.34;;;5.17;100.00
10518;BME280;5307;42.548;22.968;2024-02-23T04:56:54;93573.47;;;5.08;100.00
10518;BME280;5307;42.548;22.968;2024-02-23T04:59:21;93576.66;;;5.03;100.00
10518;BME280;5307;42.548;22.968;2024-02-23T05:01:49;93580.34;;;4.93;100.00
10518;BME280;5307;42.548;22.968;2024-02-23T05:04:17;93581.50;;;4.92;100.00
10518;BME280;5307;42.548;22.968;2024-02-23T05:06:44;93581.66;;;4.85;100.00
10518;BME280;5307;42.548;22.968;2024-02-23T05:09:10;93586.22;;;4.88;100.00
10518;BME280;5307;42.548;22.968;2024-02-23T05:11:37;93588.53;;;4.89;100.00
10518;BME280;5307;42.548;22.968;2024-02-23T05:14:04;93578.75;;;4.95;100.00
10518;BME280;5307;42.548;22.968;2024-02-23T05:16:31;93576.38;;;4.97;100.00
10518;BME280;5307;42.548;22.968;2024-02-23T05:18:59;93585.25;;;4.98;100.00
10518;BME280;5307;42.548;22.968;2024-02-23T05:21:26;93586.78;;;4.99;100.00
10518;BME280;5307;42.548;22.968;2024-02-23T05:23:54;93594.56;;;4.97;100.00
10518;BME280;5307;42.548;22.968;2024-02-23T05:26:20;93591.03;;;5.00;100.00
10518;BME280;5307;42.548;22.968;2024-02-23T05:28:47;93596.44;;;5.00;100.00
10518;BME280;5307;42.548;22.968;2024-02-23T05:31:14;93591.53;;;4.95;100.00
10518;BME280;5307;42.548;22.968;2024-02-23T05:33:47;93592.97;;;4.99;100.00
10518;BME280;5307;42.548;22.968;2024-02-23T05:36:15;93595.78;;;5.12;100.00
10518;BME280;5307;42.548;22.968;2024-02-23T05:38:53;93601.22;;;5.12;100.00
10518;BME280;5307;42.548;22.968;2024-02-23T05:41:28;93590.44;;;5.28;100.00
10518;BME280;5307;42.548;22.968;2024-02-23T05:44:00;93587.13;;;5.21;100.00
10518;BME280;5307;42.548;22.968;2024-02-23T05:46:29;93594.88;;;5.19;100.00
10518;BME280;5307;42.548;22.968;2024-02-23T05:49:08;93596.34;;;5.23;100.00
10518;BME280;5307;42.548;22.968;2024-02-23T05:51:36;93593.34;;;5.18;100.00
10518;BME280;5307;42.548;22.968;2024-02-23T05:54:21;93592.16;;;5.19;100.00
10518;BME280;5307;42.548;22.968;2024-02-23T05:56:48;93599.94;;;5.36;100.00
10518;BME280;5307;42.548;22.968;2024-02-23T05:59:18;93596.03;;;5.38;100.00
10518;BME280;5307;42.548;22.968;2024-02-23T06:01:45;93607.31;;;5.52;100.00
10518;BME280;5307;42.548;22.968;2024-02-23T06:04:14;93611.16;;;5.71;100.00
10518;BME280;5307;42.548;22.968;2024-02-23T06:06:42;93603.03;;;5.71;100.00
10518;BME280;5307;42.548;22.968;2024-02-23T06:09:15;93608.44;;;5.87;100.00
10518;BME280;5307;42.548;22.968;2024-02-23T06:11:42;93609.84;;;5.95;100.00
10518;BME280;5307;42.548;22.968;2024-02-23T06:14:16;93605.84;;;6.16;100.00
10518;BME280;5307;42.548;22.968;2024-02-23T06:16:43;93604.84;;;6.27;100.00
10518;BME280;5307;42.548;22.968;2024-02-23T06:19:09;93615.16;;;6.48;100.00
10518;BME280;5307;42.548;22.968;2024-02-23T06:21:36;93611.66;;;6.64;100.00
10518;BME280;5307;42.548;22.968;2024-02-23T06:24:06;93610.50;;;6.77;100.00
10518;BME280;5307;42.548;22.968;2024-02-23T06:26:33;93611.59;;;6.80;100.00
10518;BME280;5307;42.548;22.968;2024-02-23T06:29:06;93605.47;;;6.92;100.00
10518;BME280;5307;42.548;22.968;2024-02-23T06:31:36;93602.13;;;7.13;100.00
10518;BME280;5307;42.548;22.968;2024-02-23T06:34:04;93604.66;;;7.21;98.84
10518;BME280;5307;42.548;22.968;2024-02-23T06:36:31;93615.22;;;7.31;97.33
10518;BME280;5307;42.548;22.968;2024-02-23T06:38:58;93610.03;;;7.37;95.96
10518;BME280;5307;42.548;22.968;2024-02-23T06:41:26;93609.59;;;7.38;94.46
10518;BME280;5307;42.548;22.968;2024-02-23T06:43:53;93619.28;;;7.52;94.00
10518;BME280;5307;42.548;22.968;2024-02-23T06:46:29;93619.63;;;7.80;92.70
10518;BME280;5307;42.548;22.968;2024-02-23T06:48:55;93616.91;;;7.80;91.23
10518;BME280;5307;42.548;22.968;2024-02-23T06:51:24;93610.13;;;7.59;91.23
10518;BME280;5307;42.548;22.968;2024-02-23T06:53:51;93611.22;;;7.87;90.42
10518;BME280;5307;42.548;22.968;2024-02-23T06:56:25;93608.06;;;8.01;89.84
10518;BME280;5307;42.548;22.968;2024-02-23T06:58:52;93607.31;;;8.00;88.86
10518;BME280;5307;42.548;22.968;2024-02-23T07:01:20;93606.41;;;8.16;88.42
10518;BME280;5307;42.548;22.968;2024-02-23T07:03:46;93601.31;;;8.31;87.68
10518;BME280;5307;42.548;22.968;2024-02-23T07:06:16;93589.09;;;8.48;86.55
10518;BME280;5307;42.548;22.968;2024-02-23T07:08:43;93596.22;;;8.68;85.40
10518;BME280;5307;42.548;22.968;2024-02-23T07:11:11;93597.13;;;8.86;84.92
10518;BME280;5307;42.548;22.968;2024-02-23T07:13:42;93602.84;;;9.23;83.32
10518;BME280;5307;42.548;22.968;2024-02-23T07:16:09;93591.88;;;9.36;82.81
10518;BME280;5307;42.548;22.968;2024-02-23T07:18:36;93592.28;;;9.96;80.99
10518;BME280;5307;42.548;22.968;2024-02-23T07:21:03;93597.88;;;9.93;79.49
10518;BME280;5307;42.548;22.968;2024-02-23T07:23:29;93600.88;;;10.26;78.04
10518;BME280;5307;42.548;22.968;2024-02-23T07:25:56;93597.94;;;10.79;75.99
10518;BME280;5307;42.548;22.968;2024-02-23T07:28:23;93592.13;;;10.31;74.35
10518;BME280;5307;42.548;22.968;2024-02-23T07:30:51;93593.53;;;10.45;73.64
10518;BME280;5307;42.548;22.968;2024-02-23T07:33:18;93583.50;;;10.51;73.19
10518;BME280;5307;42.548;22.968;2024-02-23T07:35:45;93583.97;;;10.49;72.22
10518;BME280;5307;42.548;22.968;2024-02-23T07:38:12;93592.16;;;10.49;71.70
10518;BME280;5307;42.548;22.968;2024-02-23T07:40:38;93590.34;;;10.55;71.44
10518;BME280;5307;42.548;22.968;2024-02-23T07:43:06;93592.13;;;10.40;70.58
10518;BME280;5307;42.548;22.968;2024-02-23T07:45:32;93595.97;;;10.79;70.52
10518;BME280;5307;42.548;22.968;2024-02-23T07:48:04;93586.88;;;11.00;69.93
10518;BME280;5307;42.548;22.968;2024-02-23T07:50:31;93592.44;;;11.43;69.33
10518;BME280;5307;42.548;22.968;2024-02-23T07:52:58;93590.66;;;11.03;68.48
10518;BME280;5307;42.548;22.968;2024-02-23T07:55:24;93590.97;;;11.05;68.97
10518;BME280;5307;42.548;22.968;2024-02-23T07:57:51;93590.94;;;11.23;68.17
10518;BME280;5307;42.548;22.968;2024-02-23T08:00:18;93592.16;;;11.32;67.20
10518;BME280;5307;42.548;22.968;2024-02-23T08:02:45;93577.22;;;11.60;66.95
10518;BME280;5307;42.548;22.968;2024-02-23T08:05:13;93581.41;;;12.45;65.95
10518;BME280;5307;42.548;22.968;2024-02-23T08:07:40;93580.22;;;12.13;65.61
10518;BME280;5307;42.548;22.968;2024-02-23T08:10:07;93583.44;;;12.36;64.46
10518;BME280;5307;42.548;22.968;2024-02-23T08:12:34;93595.50;;;12.29;63.77
10518;BME280;5307;42.548;22.968;2024-02-23T08:15:03;93582.44;;;12.24;63.04
10518;BME280;5307;42.548;22.968;2024-02-23T08:17:30;93587.31;;;12.29;62.97
10518;BME280;5307;42.548;22.968;2024-02-23T08:19:56;93582.66;;;12.44;62.57
10518;BME280;5307;42.548;22.968;2024-02-23T08:22:24;93585.13;;;12.33;62.17
10518;BME280;5307;42.548;22.968;2024-02-23T08:24:51;93581.75;;;12.14;62.14
10518;BME280;5307;42.548;22.968;2024-02-23T08:27:18;93579.88;;;12.92;62.09
10518;BME280;5307;42.548;22.968;2024-02-23T08:29:44;93590.88;;;13.07;60.94
10518;BME280;5307;42.548;22.968;2024-02-23T08:32:11;93577.28;;;12.26;61.05
10518;BME280;5307;42.548;22.968;2024-02-23T08:34:38;93584.81;;;13.03;61.13
10518;BME280;5307;42.548;22.968;2024-02-23T08:37:05;93585.38;;;13.07;60.39
10518;BME280;5307;42.548;22.968;2024-02-23T08:39:33;93583.66;;;12.95;59.88
10518;BME280;5307;42.548;22.968;2024-02-23T08:42:02;93566.25;;;12.83;60.11
10518;BME280;5307;42.548;22.968;2024-02-23T08:44:29;93582.28;;;12.28;60.39
10518;BME280;5307;42.548;22.968;2024-02-23T08:46:56;93566.91;;;12.30;61.33
10518;BME280;5307;42.548;22.968;2024-02-23T08:49:22;93570.47;;;12.45;61.16
10518;BME280;5307;42.548;22.968;2024-02-23T08:51:49;93577.94;;;12.45;61.20
10518;BME280;5307;42.548;22.968;2024-02-23T08:54:16;93576.59;;;12.40;60.96
10518;BME280;5307;42.548;22.968;2024-02-23T08:56:44;93582.75;;;12.50;61.02
10518;BME280;5307;42.548;22.968;2024-02-23T08:59:11;93574.19;;;12.33;61.40
10518;BME280;5307;42.548;22.968;2024-02-23T09:01:37;93575.94;;;12.69;62.02
10518;BME280;5307;42.548;22.968;2024-02-23T09:04:06;93585.00;;;13.68;60.39
10518;BME280;5307;42.548;22.968;2024-02-23T09:06:33;93583.09;;;13.44;59.11
10518;BME280;5307;42.548;22.968;2024-02-23T09:09:00;93577.97;;;12.60;58.47
10518;BME280;5307;42.548;22.968;2024-02-23T09:11:26;93573.38;;;13.04;58.27
10518;BME280;5307;42.548;22.968;2024-02-23T09:13:54;93580.75;;;13.66;58.20
10518;BME280;5307;42.548;22.968;2024-02-23T09:16:21;93578.44;;;13.21;57.93
10518;BME280;5307;42.548;22.968;2024-02-23T09:18:50;93570.81;;;13.40;58.38
10518;BME280;5307;42.548;22.968;2024-02-23T09:21:16;93571.78;;;13.66;58.89
10518;BME280;5307;42.548;22.968;2024-02-23T09:23:44;93574.31;;;13.25;58.53
10518;BME280;5307;42.548;22.968;2024-02-23T09:26:11;93574.41;;;13.46;58.21
10518;BME280;5307;42.548;22.968;2024-02-23T09:28:38;93583.09;;;13.44;57.96
10518;BME280;5307;42.548;22.968;2024-02-23T09:31:07;93572.22;;;13.50;57.98
10518;BME280;5307;42.548;22.968;2024-02-23T09:33:34;93565.41;;;13.30;58.27
10518;BME280;5307;42.548;22.968;2024-02-23T09:36:01;93573.09;;;13.41;57.32
10518;BME280;5307;42.548;22.968;2024-02-23T09:38:28;93562.19;;;12.93;58.43
10518;BME280;5307;42.548;22.968;2024-02-23T09:40:57;93567.41;;;13.45;57.83
10518;BME280;5307;42.548;22.968;2024-02-23T09:43:28;93563.53;;;13.66;57.74
10518;BME280;5307;42.548;22.968;2024-02-23T09:45:56;93559.19;;;13.59;56.88
10518;BME280;5307;42.548;22.968;2024-02-23T09:48:31;93549.25;;;13.47;57.76
10518;BME280;5307;42.548;22.968;2024-02-23T09:50:59;93553.78;;;13.65;57.10
10518;BME280;5307;42.548;22.968;2024-02-23T09:53:27;93545.75;;;13.47;57.13
10518;BME280;5307;42.548;22.968;2024-02-23T09:55:55;93547.06;;;13.81;56.49
10518;BME280;5307;42.548;22.968;2024-02-23T09:58:24;93553.22;;;14.25;56.10
10518;BME280;5307;42.548;22.968;2024-02-23T10:00:55;93540.03;;;13.65;55.39
10518;BME280;5307;42.548;22.968;2024-02-23T10:03:24;93549.00;;;14.45;55.58
10518;BME280;5307;42.548;22.968;2024-02-23T10:05:55;93544.00;;;13.79;55.45
10518;BME280;5307;42.548;22.968;2024-02-23T10:08:22;93548.63;;;14.02;56.00
10518;BME280;5307;42.548;22.968;2024-02-23T10:10:49;93550.94;;;14.24;55.27
10518;BME280;5307;42.548;22.968;2024-02-23T10:13:18;93559.91;;;13.89;55.41
10518;BME280;5307;42.548;22.968;2024-02-23T10:15:46;93544.59;;;13.83;55.27
10518;BME280;5307;42.548;22.968;2024-02-23T10:18:13;93545.00;;;13.46;55.61
10518;BME280;5307;42.548;22.968;2024-02-23T10:20:40;93549.25;;;13.47;56.22
10518;BME280;5307;42.548;22.968;2024-02-23T10:23:09;93536.94;;;13.72;56.41
10518;BME280;5307;42.548;22.968;2024-02-23T10:25:36;93543.19;;;14.22;55.13
10518;BME280;5307;42.548;22.968;2024-02-23T10:28:03;93538.94;;;13.42;55.67
10518;BME280;5307;42.548;22.968;2024-02-23T10:30:30;93536.94;;;13.28;55.81
10518;BME280;5307;42.548;22.968;2024-02-23T10:32:57;93520.00;;;13.59;56.20
10518;BME280;5307;42.548;22.968;2024-02-23T10:35:25;93525.28;;;13.77;55.60
10518;BME280;5307;42.548;22.968;2024-02-23T10:37:52;93521.53;;;13.30;55.82
10518;BME280;5307;42.548;22.968;2024-02-23T10:40:20;93522.19;;;13.40;54.95
10518;BME280;5307;42.548;22.968;2024-02-23T10:42:49;93501.47;;;13.54;54.61
10518;BME280;5307;42.548;22.968;2024-02-23T10:45:20;93504.06;;;13.78;55.44
10518;BME280;5307;42.548;22.968;2024-02-23T10:47:47;93503.00;;;14.25;53.38
10518;BME280;5307;42.548;22.968;2024-02-23T10:50:14;93508.59;;;14.71;52.48
10518;BME280;5307;42.548;22.968;2024-02-23T10:52:42;93511.91;;;14.55;52.26
10518;BME280;5307;42.548;22.968;2024-02-23T10:55:09;93503.97;;;14.42;52.44
10518;BME280;5307;42.548;22.968;2024-02-23T10:57:37;93505.31;;;14.47;51.90
10518;BME280;5307;42.548;22.968;2024-02-23T11:00:06;93491.28;;;15.11;51.92
10518;BME280;5307;42.548;22.968;2024-02-23T11:02:38;93484.34;;;14.70;51.90
10518;BME280;5307;42.548;22.968;2024-02-23T11:05:07;93489.84;;;14.49;52.41
10518;BME280;5307;42.548;22.968;2024-02-23T11:07:37;93488.25;;;14.22;52.30
10518;BME280;5307;42.548;22.968;2024-02-23T11:10:05;93490.56;;;14.09;52.64
10518;BME280;5307;42.548;22.968;2024-02-23T11:12:33;93483.50;;;14.23;52.17
10518;BME280;5307;42.548;22.968;2024-02-23T11:15:02;93479.91;;;14.52;52.28
10518;BME280;5307;42.548;22.968;2024-02-23T11:17:31;93474.47;;;14.58;52.12
10518;BME280;5307;42.548;22.968;2024-02-23T11:19:58;93472.78;;;15.12;51.33
10518;BME280;5307;42.548;22.968;2024-02-23T11:22:25;93464.88;;;14.94;51.12
10518;BME280;5307;42.548;22.968;2024-02-23T11:25:00;93468.03;;;15.12;50.75
10518;BME280;5307;42.548;22.968;2024-02-23T11:27:30;93464.50;;;14.40;50.24
10518;BME280;5307;42.548;22.968;2024-02-23T11:30:06;93459.94;;;14.77;50.75
10518;BME280;5307;42.548;22.968;2024-02-23T11:32:37;93459.25;;;14.82;50.10
10518;BME280;5307;42.548;22.968;2024-02-23T11:35:06;93480.44;;;14.36;49.39
10518;BME280;5307;42.548;22.968;2024-02-23T11:37:47;93456.53;;;14.62;49.99
10518;BME280;5307;42.548;22.968;2024-02-23T11:40:14;93452.91;;;14.76;50.51
10518;BME280;5307;42.548;22.968;2024-02-23T11:42:42;93451.66;;;14.51;49.11
10518;BME280;5307;42.548;22.968;2024-02-23T11:45:12;93455.56;;;15.17;49.00
10518;BME280;5307;42.548;22.968;2024-02-23T11:47:39;93451.97;;;15.05;48.75
10518;BME280;5307;42.548;22.968;2024-02-23T11:50:08;93446.28;;;14.63;49.27
10518;BME280;5307;42.548;22.968;2024-02-23T11:52:36;93445.69;;;14.53;47.97
10518;BME280;5307;42.548;22.968;2024-02-23T11:55:04;93436.16;;;15.00;47.40
10518;BME280;5307;42.548;22.968;2024-02-23T11:57:31;93442.78;;;14.62;46.94
10518;BME280;5307;42.548;22.968;2024-02-23T12:00:00;93445.31;;;14.92;48.38
10518;BME280;5307;42.548;22.968;2024-02-23T12:02:29;93440.50;;;14.61;47.95
10518;BME280;5307;42.548;22.968;2024-02-23T12:04:56;93427.69;;;14.52;47.12
10518;BME280;5307;42.548;22.968;2024-02-23T12:07:23;93438.38;;;14.70;47.04
10518;BME280;5307;42.548;22.968;2024-02-23T12:09:51;93434.03;;;14.64;46.95
10518;BME280;5307;42.548;22.968;2024-02-23T12:12:18;93433.41;;;15.00;46.40
10518;BME280;5307;42.548;22.968;2024-02-23T12:14:45;93433.28;;;14.83;46.32
10518;BME280;5307;42.548;22.968;2024-02-23T12:17:13;93424.38;;;15.20;45.94
10518;BME280;5307;42.548;22.968;2024-02-23T12:19:41;93421.53;;;15.14;46.34
10518;BME280;5307;42.548;22.968;2024-02-23T12:22:09;93428.34;;;14.67;45.72
10518;BME280;5307;42.548;22.968;2024-02-23T12:24:36;93413.91;;;14.98;45.81
10518;BME280;5307;42.548;22.968;2024-02-23T12:27:03;93421.53;;;15.14;46.08
10518;BME280;5307;42.548;22.968;2024-02-23T12:29:31;93425.00;;;15.09;44.85
10518;BME280;5307;42.548;22.968;2024-02-23T12:32:04;93430.44;;;15.30;45.05
10518;BME280;5307;42.548;22.968;2024-02-23T12:34:31;93420.44;;;15.01;45.07
10518;BME280;5307;42.548;22.968;2024-02-23T12:37:03;93418.78;;;14.83;45.09
10518;BME280;5307;42.548;22.968;2024-02-23T12:39:30;93426.16;;;14.71;45.31
10518;BME280;5307;42.548;22.968;2024-02-23T12:41:57;93425.16;;;14.74;45.06
10518;BME280;5307;42.548;22.968;2024-02-23T12:44:24;93407.75;;;14.57;45.21
10518;BME280;5307;42.548;22.968;2024-02-23T12:46:50;93414.88;;;14.69;45.82
10518;BME280;5307;42.548;22.968;2024-02-23T12:49:17;93419.56;;;14.43;45.38
10518;BME280;5307;42.548;22.968;2024-02-23T12:51:44;93411.06;;;14.41;45.38
10518;BME280;5307;42.548;22.968;2024-02-23T12:54:12;93414.06;;;14.63;45.99
10518;BME280;5307;42.548;22.968;2024-02-23T12:56:39;93403.06;;;14.63;45.77
10518;BME280;5307;42.548;22.968;2024-02-23T12:59:06;93406.38;;;14.67;45.73
10518;BME280;5307;42.548;22.968;2024-02-23T13:01:34;93400.03;;;14.61;45.38
10518;BME280;5307;42.548;22.968;2024-02-23T13:04:03;93399.09;;;14.64;45.40
10518;BME280;5307;42.548;22.968;2024-02-23T13:06:35;93408.19;;;14.50;45.31